San Jose De Chiquitos, Bolivia
Current Conditions -  °F | °C
As of 7:33 AM on Saturday 20 Dec 2014 (Local Time) from SLVR Reporting Station
Drizzle Drizzle  
Wind Chill: 73°   Ceiling: 800
Heat Index: 73°   Visibility: 5mi
Dew Point: 73°   Wind: 17mph
Humidity: 100%   Direction: 340°NNW
Pressure: 29.71"   Gusts: 29mph
Location:  17.84°S, 60.73°W
Report Text: SLVR 201133Z 34015G25KT 8000 -DZ SCT004 BKN008 OVC070 23/23 Q1006
Loading
Personal Weather Stations






























Interactive Weather Map New forecast layout! Learn more

10-Day Weather Forecast

Advertisements
Track Severe Weather on mobile